createdAt,value
2022-09-15T00:00:08.284Z,99.9
2022-09-15T00:02:10.454Z,99.9
2022-09-15T00:04:12.750Z,99.9
2022-09-15T00:06:14.400Z,99.9
2022-09-15T00:08:16.443Z,99.9
2022-09-15T00:10:18.500Z,99.9
2022-09-15T00:12:23.625Z,99.9
2022-09-15T00:14:25.705Z,99.9
2022-09-15T00:16:27.715Z,99.9
2022-09-15T00:18:29.747Z,99.9
2022-09-15T00:20:31.795Z,99.9
2022-09-15T00:22:33.864Z,99.9
2022-09-15T00:24:35.908Z,99.9
2022-09-15T00:26:41.006Z,99.9
2022-09-15T00:28:43.080Z,99.9
2022-09-15T00:32:47.164Z,99.9
2022-09-15T00:34:49.221Z,99.9
2022-09-15T00:40:58.449Z,99.9
2022-09-15T00:43:00.484Z,99.9
2022-09-15T00:46:05.198Z,99.9
2022-09-15T00:48:07.146Z,99.9
2022-09-15T00:50:09.166Z,99.9
2022-09-15T00:52:11.210Z,99.9
2022-09-15T00:54:16.329Z,99.9
2022-09-15T00:56:18.378Z,99.9
2022-09-15T01:00:22.479Z,99.9
2022-09-15T01:02:24.572Z,99.9
2022-09-15T01:04:26.531Z,99.9
2022-09-15T01:06:28.601Z,99.9
2022-09-15T01:08:33.703Z,99.9
2022-09-15T01:10:35.735Z,99.9
2022-09-15T01:14:39.839Z,99.9
2022-09-15T01:30:59.248Z,99.9
2022-09-15T01:35:03.361Z,99.9
2022-09-15T01:39:10.490Z,99.9
2022-09-15T01:41:12.543Z,99.9
2022-09-15T01:42:15.092Z,99.9
2022-09-15T01:46:19.239Z,99.9
2022-09-15T01:48:21.279Z,99.9
2022-09-15T01:52:28.425Z,99.9
2022-09-15T01:54:30.489Z,99.9
2022-09-15T01:56:32.553Z,99.9
2022-09-15T01:58:34.603Z,99.9
2022-09-15T02:00:36.644Z,99.9
2022-09-15T02:04:43.818Z,99.9
2022-09-15T02:06:45.843Z,99.9
2022-09-15T02:10:49.963Z,99.9
2022-09-15T02:12:52.012Z,99.9
2022-09-15T02:14:54.041Z,99.9
2022-09-15T02:16:56.089Z,99.9
2022-09-15T02:19:01.221Z,99.9
2022-09-15T02:21:03.287Z,99.9
2022-09-15T02:23:05.304Z,99.9
2022-09-15T02:27:09.415Z,99.9
2022-09-15T02:29:11.446Z,99.9
2022-09-15T02:31:13.555Z,99.9
2022-09-15T02:33:18.616Z,99.9
2022-09-15T02:35:20.656Z,99.9
2022-09-15T02:38:25.284Z,99.9
2022-09-15T02:40:27.373Z,99.9
2022-09-15T02:42:29.375Z,99.9
2022-09-15T02:44:31.437Z,99.9
2022-09-15T02:48:38.629Z,99.9
2022-09-15T02:50:40.666Z,99.9
2022-09-15T02:52:48.951Z,99.9
2022-09-15T02:54:44.734Z,99.9
2022-09-15T02:56:46.763Z,99.9
2022-09-15T02:58:48.833Z,99.9
2022-09-15T03:00:53.962Z,99.9
2022-09-15T03:02:55.974Z,99.9
2022-09-15T03:04:58.013Z,99.9
2022-09-15T03:07:00.081Z,99.9
2022-09-15T03:09:02.160Z,99.9
2022-09-15T03:15:11.299Z,99.9
2022-09-15T03:17:13.377Z,99.9
2022-09-15T03:19:15.423Z,99.9
2022-09-15T03:21:17.561Z,99.9
2022-09-15T03:23:19.514Z,99.9
2022-09-15T03:25:21.556Z,99.9
2022-09-15T03:27:23.612Z,99.9
2022-09-15T03:29:28.719Z,99.9
2022-09-15T03:31:30.814Z,99.9
2022-09-15T03:39:59.762Z,99.9
2022-09-15T03:42:04.780Z,99.9
2022-09-15T03:44:06.815Z,99.9
2022-09-15T03:48:10.931Z,99.9
2022-09-15T03:50:12.981Z,99.9
2022-09-15T03:56:22.195Z,99.9
2022-09-15T04:04:30.399Z,99.9
2022-09-15T04:06:32.436Z,99.9
2022-09-15T04:08:34.492Z,99.9
2022-09-15T04:10:39.587Z,99.9
2022-09-15T04:12:41.655Z,99.9
2022-09-15T04:14:43.696Z,99.9
2022-09-15T04:16:45.837Z,99.9
2022-09-15T04:18:47.782Z,99.9
2022-09-15T04:20:49.845Z,99.9
2022-09-15T04:22:51.901Z,99.9
2022-09-15T04:24:57.033Z,99.9
2022-09-15T04:26:59.062Z,99.9
2022-09-15T04:29:04.264Z,99.9
2022-09-15T04:32:05.742Z,99.9
2022-09-15T04:34:07.755Z,99.9
2022-09-15T04:36:09.810Z,99.9
2022-09-15T04:38:14.915Z,99.9
2022-09-15T04:40:17.031Z,99.9
2022-09-15T04:42:19.004Z,99.9
2022-09-15T04:44:21.043Z,99.9
2022-09-15T04:46:23.193Z,99.9
2022-09-15T04:48:25.119Z,99.9
2022-09-15T04:50:27.173Z,99.9
2022-09-15T04:52:32.282Z,99.9
2022-09-15T05:00:40.505Z,99.9
2022-09-15T05:02:42.495Z,99.9
2022-09-15T05:06:49.665Z,99.9
2022-09-15T05:08:51.848Z,99.9
2022-09-15T05:10:53.743Z,99.9
2022-09-15T05:14:57.841Z,99.9
2022-09-15T05:16:59.881Z,99.9
2022-09-15T05:19:03.466Z,99.9
2022-09-15T05:23:10.598Z,99.9
2022-09-15T05:25:12.615Z,99.9
2022-09-15T05:26:15.210Z,99.9
2022-09-15T05:28:17.207Z,99.9
2022-09-15T05:30:36.768Z,99.9
2022-09-15T05:32:21.306Z,99.9
2022-09-15T05:34:26.412Z,99.9
2022-09-15T05:38:30.504Z,99.9
2022-09-15T05:40:32.570Z,99.9
2022-09-15T05:42:34.591Z,99.9
2022-09-15T05:44:36.649Z,99.9
2022-09-15T05:52:47.865Z,99.9
2022-09-15T05:54:49.905Z,99.9
2022-09-15T05:58:53.996Z,99.9
2022-09-15T06:00:56.039Z,99.9
2022-09-15T06:05:03.188Z,99.9
2022-09-15T06:07:05.228Z,99.9
2022-09-15T06:09:07.261Z,99.9
2022-09-15T06:11:09.291Z,99.9
2022-09-15T06:13:11.353Z,99.9
2022-09-15T06:15:13.368Z,99.9
2022-09-15T06:17:18.488Z,99.9
2022-09-15T06:19:20.518Z,99.9
2022-09-15T06:21:22.573Z,99.9
2022-09-15T06:22:25.114Z,99.9
2022-09-15T06:24:27.192Z,99.9
2022-09-15T06:26:29.185Z,99.9
2022-09-15T06:28:31.226Z,99.9
2022-09-15T06:30:36.372Z,99.9
2022-09-15T06:35:28.131Z,99.9
2022-09-15T06:36:42.461Z,99.9
2022-09-15T06:38:44.499Z,99.9
2022-09-15T06:40:46.570Z,99.9
2022-09-15T06:44:53.687Z,99.9
2022-09-15T06:46:55.726Z,99.9
2022-09-15T06:48:57.760Z,99.9
2022-09-15T06:50:59.805Z,99.9
2022-09-15T06:53:01.842Z,99.9
2022-09-15T06:55:03.894Z,99.9
2022-09-15T06:57:05.936Z,99.9
2022-09-15T06:59:11.046Z,99.9
2022-09-15T07:01:13.106Z,99.9
2022-09-15T07:03:15.209Z,99.9
2022-09-15T07:05:17.160Z,99.9
2022-09-15T07:07:19.180Z,99.9
2022-09-15T07:09:21.251Z,99.9
2022-09-15T07:11:23.269Z,99.9
2022-09-15T07:13:28.378Z,99.9
2022-09-15T07:15:30.416Z,99.9
2022-09-15T07:17:32.441Z,99.9
2022-09-15T07:19:55.138Z,99.9
2022-09-15T07:21:57.182Z,99.9
2022-09-15T07:24:01.600Z,99.9
2022-09-15T07:26:04.364Z,99.9
2022-09-15T07:28:06.379Z,99.9
2022-09-15T07:30:08.405Z,99.9
2022-09-15T07:32:10.471Z,99.9
2022-09-15T07:34:12.515Z,99.9
2022-09-15T07:36:14.578Z,99.9
2022-09-15T07:38:16.610Z,99.9
2022-09-15T07:42:24.623Z,99.9
2022-09-15T07:44:26.665Z,99.9
2022-09-15T07:46:28.721Z,99.9
2022-09-15T07:48:30.770Z,99.9
2022-09-15T07:52:34.852Z,99.9
2022-09-15T07:54:39.955Z,99.9
2022-09-15T07:56:41.989Z,99.9
2022-09-15T07:58:44.035Z,99.9
2022-09-15T08:00:46.123Z,99.9
2022-09-15T08:02:48.145Z,99.9
2022-09-15T08:04:50.167Z,99.9
2022-09-15T08:06:52.206Z,99.9
2022-09-15T08:09:00.661Z,99.9
2022-09-15T08:10:59.342Z,99.9
2022-09-15T08:13:01.387Z,99.9
2022-09-15T08:14:03.923Z,99.9
2022-09-15T08:16:05.998Z,99.9
2022-09-15T08:18:08.019Z,99.9
2022-09-15T08:20:10.052Z,99.9
2022-09-15T08:28:21.245Z,99.9
2022-09-15T08:32:25.295Z,99.1
2022-09-15T08:38:34.463Z,93.1
2022-09-15T08:40:36.571Z,86.2
2022-09-15T08:42:42.841Z,85.4
2022-09-15T08:48:44.571Z,80.7
2022-09-15T08:54:53.694Z,87.8
2022-09-15T08:56:55.737Z,78.9
2022-09-15T08:58:57.736Z,78
2022-09-15T09:00:59.755Z,76.1
2022-09-15T09:03:01.842Z,78.6
2022-09-15T09:05:06.862Z,78.3
2022-09-15T09:07:08.856Z,76.3
2022-09-15T09:09:10.885Z,75
2022-09-15T09:10:13.406Z,74.9
2022-09-15T09:12:15.496Z,74.3
2022-09-15T09:14:17.438Z,73.5
2022-09-15T09:18:24.539Z,67.8
2022-09-15T09:20:26.525Z,67.5
2022-09-15T09:22:28.536Z,64.6
2022-09-15T09:24:30.560Z,64.3
2022-09-15T09:26:32.554Z,64.2
2022-09-15T09:28:34.573Z,63.9
2022-09-15T09:32:41.665Z,62.1
2022-09-15T09:34:43.669Z,61.7
2022-09-15T09:36:45.720Z,60.8
2022-09-15T09:38:47.688Z,60.7
2022-09-15T09:44:53.698Z,60.1
2022-09-15T09:53:04.763Z,59.3
2022-09-15T09:59:10.760Z,55.6
2022-09-15T10:01:15.896Z,55.2
2022-09-15T10:03:17.841Z,54.9
2022-09-15T10:05:19.819Z,54.9
2022-09-15T10:08:24.392Z,54.2
2022-09-15T10:10:26.343Z,53.9
2022-09-15T10:12:28.322Z,53.7
2022-09-15T10:14:33.410Z,53.4
2022-09-15T10:16:35.461Z,53.5
2022-09-15T10:18:37.368Z,53.6
2022-09-15T10:20:39.348Z,53.8
2022-09-15T10:22:41.343Z,53.7
2022-09-15T10:24:43.312Z,53.5
2022-09-15T10:26:45.292Z,53.4
2022-09-15T10:28:50.376Z,53.4
2022-09-15T10:30:52.368Z,53.5
2022-09-15T10:32:54.332Z,53.6
2022-09-15T10:34:56.298Z,53.8
2022-09-15T10:39:00.261Z,54.4
2022-09-15T10:41:02.262Z,54.5
2022-09-15T10:43:07.315Z,54.8
2022-09-15T10:47:11.278Z,54.9
2022-09-15T10:49:13.266Z,54.9
2022-09-15T10:51:15.234Z,54.9
2022-09-15T10:53:17.220Z,54.7
2022-09-15T10:55:31.840Z,54.5
2022-09-15T10:57:24.303Z,54
2022-09-15T10:59:26.251Z,53.7
2022-09-15T11:01:28.228Z,53.4
2022-09-15T11:03:50.904Z,53.3
2022-09-15T11:05:52.905Z,53.2
2022-09-15T11:07:54.881Z,52.9
2022-09-15T11:10:01.447Z,52.4
2022-09-15T11:12:03.413Z,52.2
2022-09-15T11:14:05.409Z,52.1
2022-09-15T11:16:07.451Z,51.8
2022-09-15T11:18:09.343Z,51.8
2022-09-15T11:20:11.371Z,52
2022-09-15T11:22:13.332Z,52.1
2022-09-15T11:24:18.387Z,52.2
2022-09-15T11:26:20.352Z,52.4
2022-09-15T11:30:24.323Z,52.3
2022-09-15T11:32:26.290Z,52.5
2022-09-15T11:34:28.267Z,52.7
2022-09-15T11:36:30.247Z,52.9
2022-09-15T11:38:35.312Z,53.8
2022-09-15T11:40:37.273Z,53.9
2022-09-15T11:44:41.229Z,51
2022-09-15T11:48:45.318Z,51
2022-09-15T11:50:47.148Z,52.6
2022-09-15T11:54:54.193Z,57.5
2022-09-15T11:57:58.723Z,63.2
2022-09-15T12:00:00.695Z,65.1
2022-09-15T12:02:02.740Z,69.2
2022-09-15T12:04:04.666Z,69.9
2022-09-15T12:06:09.737Z,69.7
2022-09-15T12:08:11.734Z,69.5
2022-09-15T12:10:13.717Z,68.3
2022-09-15T12:12:15.711Z,67.8
2022-09-15T12:14:17.730Z,67.2
2022-09-15T12:20:26.791Z,64.5
2022-09-15T12:22:28.805Z,64.3
2022-09-15T12:26:32.792Z,64.1
2022-09-15T12:28:34.853Z,64.4
2022-09-15T12:30:36.797Z,64.2
2022-09-15T12:32:38.799Z,63.9
2022-09-15T12:34:43.874Z,63.6
2022-09-15T12:36:45.876Z,62.7
2022-09-15T12:38:47.879Z,61.6
2022-09-15T12:40:49.890Z,60.8
2022-09-15T12:42:51.869Z,58.7
2022-09-15T12:44:53.883Z,56.6
2022-09-15T12:46:55.939Z,55.1
2022-09-15T12:49:00.938Z,54.6
2022-09-15T12:51:02.925Z,53.8
2022-09-15T12:53:04.905Z,52
2022-09-15T12:56:09.443Z,50.5
2022-09-15T13:00:13.398Z,49.5
2022-09-15T13:08:24.402Z,49.6
2022-09-15T13:14:30.334Z,51
2022-09-15T13:20:39.362Z,50
2022-09-15T13:22:41.340Z,49.4
2022-09-15T13:24:43.321Z,49.1
2022-09-15T13:26:45.294Z,49.1
2022-09-15T13:28:47.739Z,49.1
2022-09-15T13:30:52.370Z,49.4
2022-09-15T13:39:00.249Z,50
2022-09-15T13:41:02.188Z,49.8
2022-09-15T13:43:04.226Z,49.7
2022-09-15T13:45:09.225Z,49.8
2022-09-15T13:47:11.188Z,50
2022-09-15T13:49:13.166Z,49.9
2022-09-15T13:52:17.680Z,48
2022-09-15T13:54:19.651Z,46.5
2022-09-15T13:56:21.588Z,46.4
2022-09-15T13:58:58.736Z,45.7
2022-09-15T14:00:29.593Z,45.7
2022-09-15T14:02:30.680Z,45.9
2022-09-15T14:04:32.529Z,46.4
2022-09-15T14:06:34.502Z,47.2
2022-09-15T14:10:38.433Z,48.8
2022-09-15T14:18:49.386Z,49
2022-09-15T14:20:51.386Z,49
2022-09-15T14:22:53.309Z,49.3
2022-09-15T14:24:55.284Z,49.6
2022-09-15T14:27:00.340Z,49.9
2022-09-15T14:29:02.285Z,49.9
2022-09-15T14:31:04.254Z,49.7
2022-09-15T14:33:06.217Z,49.7
2022-09-15T14:35:08.166Z,49.6
2022-09-15T14:37:10.141Z,49.5
2022-09-15T14:39:12.095Z,49.5
2022-09-15T14:43:19.499Z,49
2022-09-15T14:45:56.014Z,48.7
2022-09-15T14:47:38.033Z,48.2
2022-09-15T14:49:39.991Z,47.8
2022-09-15T14:51:41.940Z,47.8
2022-09-15T14:53:46.980Z,48.2
2022-09-15T14:57:50.905Z,48.8
2022-09-15T14:59:52.855Z,49.2
2022-09-15T15:06:03.004Z,49.5
2022-09-15T15:08:03.852Z,49.5
2022-09-15T15:10:05.810Z,49.3
2022-09-15T15:12:07.811Z,49.4
2022-09-15T15:16:11.789Z,49.6
2022-09-15T15:18:13.761Z,49.8
2022-09-15T15:20:15.737Z,50
2022-09-15T15:22:20.830Z,50.9
2022-09-15T15:24:22.854Z,51.4
2022-09-15T15:26:24.809Z,51.7
2022-09-15T15:32:30.819Z,52.6
2022-09-15T15:34:32.818Z,52.8
2022-09-15T15:40:41.879Z,53.5
2022-09-15T15:41:44.516Z,54
2022-09-15T15:43:46.421Z,54.3
2022-09-15T15:45:48.471Z,54.3
2022-09-15T15:47:50.421Z,51.6
2022-09-15T15:50:12.335Z,50.7
2022-09-15T15:51:57.516Z,50
2022-09-15T15:53:59.470Z,49.7
2022-09-15T15:56:01.499Z,49.7
2022-09-15T15:58:03.469Z,50.8
2022-09-15T16:00:05.457Z,52.9
2022-09-15T16:02:07.518Z,54.3
2022-09-15T16:04:12.399Z,55.7
2022-09-15T16:06:14.367Z,55.8
2022-09-15T16:08:16.380Z,56
2022-09-15T16:12:20.376Z,54.4
2022-09-15T16:14:22.361Z,54.3
2022-09-15T16:20:31.552Z,55.1
2022-09-15T16:22:33.466Z,55.2
2022-09-15T16:24:35.468Z,55.1
2022-09-15T16:26:37.482Z,54.7
2022-09-15T16:28:39.492Z,54.5
2022-09-15T16:34:48.621Z,55.3
2022-09-15T16:37:53.179Z,56.3
2022-09-15T16:39:55.269Z,56.5
2022-09-15T16:41:57.245Z,57.1
2022-09-15T16:46:04.350Z,58.7
2022-09-15T16:48:06.354Z,59.8
2022-09-15T16:50:08.382Z,61.2
2022-09-15T16:52:10.399Z,63.3
2022-09-15T16:56:14.476Z,98.5
2022-09-15T16:58:16.518Z,99
2022-09-15T17:00:23.199Z,99.4
2022-09-15T17:02:25.245Z,99.6
2022-09-15T17:04:27.209Z,99.7
2022-09-15T17:06:29.240Z,99.7
2022-09-15T17:08:31.347Z,99.9
2022-09-15T17:10:33.339Z,99.9
2022-09-15T17:12:35.380Z,99.9
2022-09-15T17:14:40.507Z,99.9
2022-09-15T17:16:42.562Z,99.9
2022-09-15T17:18:44.619Z,99.9
2022-09-15T17:20:46.673Z,99.9
2022-09-15T17:28:57.943Z,99.9
2022-09-15T17:31:00.074Z,99.9
2022-09-15T17:33:02.110Z,99.9
2022-09-15T17:34:04.665Z,99.9
2022-09-15T17:36:06.712Z,99.9
2022-09-15T17:38:08.749Z,99.9
2022-09-15T17:40:10.900Z,99.9
2022-09-15T17:42:15.972Z,99.9
2022-09-15T17:44:18.026Z,99.9
2022-09-15T17:46:20.162Z,99.9
2022-09-15T17:48:22.149Z,99.9
2022-09-15T17:50:24.213Z,99.9
2022-09-15T17:52:26.293Z,99.9
2022-09-15T17:54:28.327Z,99.9
2022-09-15T17:56:33.445Z,99.9
2022-09-15T17:58:35.504Z,99.9
2022-09-15T18:00:37.586Z,99.9
2022-09-15T18:02:39.703Z,99.9
2022-09-15T18:04:41.688Z,99.9
2022-09-15T18:06:45.679Z,99.9
2022-09-15T18:08:45.892Z,99.9
2022-09-15T18:10:50.961Z,99.9
2022-09-15T18:12:55.569Z,99.9
2022-09-15T18:14:55.077Z,99.9
2022-09-15T18:16:57.152Z,99.9
2022-09-15T18:18:59.204Z,99.9
2022-09-15T18:21:01.281Z,99.9
2022-09-15T18:23:03.346Z,99.9
2022-09-15T18:25:08.485Z,99.9
2022-09-15T18:27:10.546Z,99.9
2022-09-15T18:31:33.498Z,99.9
2022-09-15T18:35:37.557Z,99.9
2022-09-15T18:37:42.683Z,99.9
2022-09-15T18:39:44.754Z,99.9
2022-09-15T18:41:46.817Z,99.9
2022-09-15T18:43:48.996Z,99.9
2022-09-15T18:45:51.090Z,99.9
2022-09-15T18:47:53.012Z,99.9
2022-09-15T18:49:55.080Z,99.9
2022-09-15T18:52:00.212Z,99.9
2022-09-15T18:54:02.245Z,99.9
2022-09-15T19:00:08.434Z,99.9
2022-09-15T19:02:10.615Z,99.9
2022-09-15T19:04:12.565Z,99.9
2022-09-15T19:06:17.664Z,99.9
2022-09-15T19:08:19.729Z,99.9
2022-09-15T19:10:21.828Z,99.9
2022-09-15T19:12:23.835Z,99.9
2022-09-15T19:14:25.920Z,99.9
2022-09-15T19:16:46.650Z,99.9
2022-09-15T19:18:30.017Z,99.9
2022-09-15T19:20:35.173Z,99.9
2022-09-15T19:22:37.244Z,99.9
2022-09-15T19:24:39.281Z,99.9
2022-09-15T19:39:59.372Z,99.9
2022-09-15T19:42:01.343Z,99.9
2022-09-15T19:44:03.441Z,99.9
2022-09-15T19:46:05.522Z,99.9
2022-09-15T19:48:10.586Z,99.9
2022-09-15T19:50:12.647Z,99.9
2022-09-15T19:52:14.694Z,99.9
2022-09-15T19:56:18.819Z,99.9
2022-09-15T19:58:20.875Z,99.9
2022-09-15T20:00:22.938Z,99.9
2022-09-15T20:02:28.124Z,99.9
2022-09-15T20:12:38.356Z,99.9
2022-09-15T20:18:47.573Z,99.9
2022-09-15T20:20:49.621Z,99.9
2022-09-15T20:21:52.180Z,99.9
2022-09-15T20:23:54.253Z,99.9
2022-09-15T20:25:56.324Z,99.9
2022-09-15T20:27:58.390Z,99.9
2022-09-15T20:30:26.880Z,99.9
2022-09-15T20:32:37.205Z,99.9
2022-09-15T20:34:07.595Z,99.9
2022-09-15T20:36:09.667Z,99.9
2022-09-15T20:38:11.727Z,99.9
2022-09-15T20:40:13.858Z,99.9
2022-09-15T20:42:15.863Z,99.9
2022-09-15T20:44:20.959Z,99.9
2022-09-15T20:46:23.090Z,99.9
2022-09-15T20:52:29.664Z,99.9
2022-09-15T20:54:31.237Z,99.9
2022-09-15T20:56:33.319Z,99.9
2022-09-15T20:58:38.418Z,99.9
2022-09-15T21:00:40.479Z,99.9
2022-09-15T21:02:42.660Z,99.9
2022-09-15T21:08:48.703Z,99.9
2022-09-15T21:10:50.776Z,99.9
2022-09-15T21:14:57.926Z,99.9
2022-09-15T21:16:59.996Z,99.9
2022-09-15T21:18:02.537Z,99.9
2022-09-15T21:20:04.625Z,99.9
2022-09-15T21:22:06.656Z,99.9
2022-09-15T21:24:08.738Z,99.9
2022-09-15T21:26:13.829Z,99.9
2022-09-15T21:28:15.904Z,99.9
2022-09-15T21:30:17.954Z,99.9
2022-09-15T21:34:22.094Z,99.9
2022-09-15T21:36:24.127Z,99.9
2022-09-15T21:38:26.190Z,99.9
2022-09-15T21:40:31.419Z,99.9
2022-09-15T21:42:33.393Z,99.9
2022-09-15T21:44:35.433Z,99.9
2022-09-15T21:46:37.486Z,99.9
2022-09-15T21:48:39.558Z,99.9
2022-09-15T21:50:41.600Z,99.9
2022-09-15T21:52:43.657Z,99.9
2022-09-15T21:54:48.781Z,99.9
2022-09-15T21:58:52.922Z,99.9
2022-09-15T22:00:55.000Z,99.9
2022-09-15T22:04:59.096Z,99.9
2022-09-15T22:07:01.146Z,99.9
2022-09-15T22:09:06.365Z,99.9
2022-09-15T22:11:08.331Z,99.9
2022-09-15T22:13:10.391Z,99.9
2022-09-15T22:15:31.107Z,99.9
2022-09-15T22:17:33.156Z,99.9
2022-09-15T22:19:35.200Z,99.9
2022-09-15T22:21:46.077Z,99.9
2022-09-15T22:23:42.397Z,99.9
2022-09-15T22:25:44.476Z,99.9
2022-09-15T22:27:46.516Z,99.9
2022-09-15T22:29:48.580Z,99.9
2022-09-15T22:31:50.680Z,99.9
2022-09-15T22:33:52.700Z,99.9
2022-09-15T22:35:57.807Z,99.9
2022-09-15T22:37:59.852Z,99.9
2022-09-15T22:40:02.034Z,99.9
2022-09-15T22:42:03.964Z,99.9
2022-09-15T22:46:08.180Z,99.9
2022-09-15T22:48:10.106Z,99.9
2022-09-15T22:50:15.222Z,99.9
2022-09-15T22:52:17.288Z,99.9
2022-09-15T22:54:19.330Z,99.9
2022-09-15T22:56:22.915Z,99.9
2022-09-15T22:58:24.929Z,99.9
2022-09-15T23:02:29.117Z,99.9
2022-09-15T23:04:34.141Z,99.9
2022-09-15T23:08:38.276Z,99.9
2022-09-15T23:09:40.817Z,99.9
2022-09-15T23:11:42.878Z,99.9
2022-09-15T23:13:44.940Z,99.9
2022-09-15T23:23:58.246Z,99.9
2022-09-15T23:28:02.377Z,99.9
2022-09-15T23:30:04.404Z,99.9
2022-09-15T23:34:11.563Z,99.9
2022-09-15T23:36:13.639Z,99.9
2022-09-15T23:42:19.782Z,99.9
2022-09-15T23:44:21.845Z,99.9
2022-09-15T23:46:27.038Z,99.9
2022-09-15T23:48:29.000Z,99.9
2022-09-15T23:50:31.067Z,99.9
2022-09-15T23:52:33.134Z,99.9
2022-09-15T23:54:35.175Z,99.9
2022-09-15T23:56:37.248Z,99.9
2022-09-15T23:58:39.280Z,99.9
